Time;durP1;ratioP1;P1;durP2;ratioP2;P2;SDS_P1;SDS_P2;PMS_P1;PMS_P2;Temp;Humidity;BMP_temperature;BMP_pressure;BME280_temperature;BME280_humidity;BME280_pressure;Samples;Min_cycle;Max_cycle;Signal;HPM_P1;HPM_P2
2022/03/05 00:00:24;;;;;;;14.10;8.93;;;;;;;2.67;68.01;98365.91;4125020;28;20232;-90
2022/03/05 00:02:29;;;;;;;18.10;9.55;;;;;;;2.65;68.13;98369.44;4124357;28;20227;-89
2022/03/05 00:04:32;;;;;;;16.50;8.95;;;;;;;2.64;68.39;98375.47;4127166;28;20208;-89
2022/03/05 00:06:35;;;;;;;15.70;9.50;;;;;;;2.63;68.44;98381.50;4130884;28;20286;-89
2022/03/05 00:08:38;;;;;;;14.88;9.80;;;;;;;2.60;68.50;98373.88;4145313;28;20246;-90
2022/03/05 00:10:41;;;;;;;14.38;9.15;;;;;;;2.59;68.44;98373.03;4129063;28;20711;-89
2022/03/05 00:12:44;;;;;;;14.00;9.07;;;;;;;2.57;68.92;98377.41;4141290;28;20768;-89
2022/03/05 00:14:48;;;;;;;14.60;8.45;;;;;;;2.60;69.13;98371.28;4142500;28;20210;-89
2022/03/05 00:16:51;;;;;;;21.30;10.13;;;;;;;2.60;68.85;98377.31;4143725;28;20239;-90
2022/03/05 00:18:56;;;;;;;15.75;9.80;;;;;;;2.57;68.80;98373.97;4125178;28;20205;-89
2022/03/05 00:20:59;;;;;;;16.98;10.52;;;;;;;2.54;69.10;98374.94;4144670;28;20212;-89
2022/03/05 00:23:02;;;;;;;16.58;10.10;;;;;;;2.55;69.18;98368.88;4143692;28;20233;-90
2022/03/05 00:25:07;;;;;;;16.80;10.68;;;;;;;2.57;68.37;98381.69;4128267;28;20210;-89
2022/03/05 00:27:10;;;;;;;15.77;9.93;;;;;;;2.55;68.64;98374.03;4127200;28;20208;-89
2022/03/05 00:29:14;;;;;;;19.90;9.30;;;;;;;2.55;68.93;98380.91;4125242;28;20210;-90
2022/03/05 00:31:17;;;;;;;13.80;9.00;;;;;;;2.55;69.14;98373.19;4142380;28;20211;-89
2022/03/05 00:33:21;;;;;;;16.25;10.32;;;;;;;2.57;68.92;98377.41;4128510;28;20283;-89
2022/03/05 00:35:26;;;;;;;16.55;9.73;;;;;;;2.57;69.40;98372.25;4146236;28;20208;-89
2022/03/05 00:37:29;;;;;;;15.80;9.45;;;;;;;2.53;69.24;98368.09;4123021;28;20287;-89
2022/03/05 00:39:32;;;;;;;15.88;9.18;;;;;;;2.57;68.99;98379.13;4143272;28;20218;-89
2022/03/05 00:41:35;;;;;;;14.00;9.30;;;;;;;2.59;69.29;98369.63;4128687;28;20262;-89
2022/03/05 00:43:39;;;;;;;17.33;9.73;;;;;;;2.59;68.81;98370.47;4145768;28;20229;-89
2022/03/05 00:45:43;;;;;;;13.77;8.88;;;;;;;2.63;69.38;98371.19;4130338;28;20299;-89
2022/03/05 00:47:46;;;;;;;17.38;9.25;;;;;;;2.66;68.83;98365.94;4146640;28;20254;-89
2022/03/05 00:49:49;;;;;;;16.42;9.82;;;;;;;2.67;69.12;98377.94;4141761;28;20215;-89
2022/03/05 00:51:54;;;;;;;16.80;9.63;;;;;;;2.68;68.74;98369.34;4148110;28;20213;-89
2022/03/05 00:53:57;;;;;;;14.93;9.65;;;;;;;2.69;68.71;98371.88;4143552;28;20783;-89
2022/03/05 00:56:00;;;;;;;16.77;9.70;;;;;;;2.65;68.00;98375.41;4141360;28;20216;-89
2022/03/05 00:58:03;;;;;;;16.95;11.13;;;;;;;2.64;68.80;98373.72;4142440;28;20219;-89
2022/03/05 01:00:10;;;;;;;19.13;11.20;;;;;;;2.60;68.96;98372.16;4142445;28;20200;-89
2022/03/05 01:02:13;;;;;;;17.38;10.20;;;;;;;2.57;69.11;98366.25;4144024;28;20216;-89
2022/03/05 01:04:17;;;;;;;16.05;10.25;;;;;;;2.58;69.08;98368.78;4143405;28;22095;-89
2022/03/05 01:06:20;;;;;;;14.80;9.15;;;;;;;2.56;69.22;98375.72;4144336;28;20237;-89
2022/03/05 01:08:25;;;;;;;16.65;9.43;;;;;;;2.59;69.01;98367.06;4127403;28;20220;-89
2022/03/05 01:10:28;;;;;;;16.02;10.40;;;;;;;2.61;69.05;98363.53;4141322;28;20251;-89
2022/03/05 01:12:31;;;;;;;17.80;9.77;;;;;;;2.60;69.15;98369.59;4122160;28;20264;-88
2022/03/05 01:14:34;;;;;;;19.65;10.23;;;;;;;2.61;68.84;98373.81;4138266;28;20710;-89
2022/03/05 01:16:38;;;;;;;17.00;9.90;;;;;;;2.59;68.96;98367.06;4129625;28;20310;-89
2022/03/05 01:18:41;;;;;;;15.98;9.75;;;;;;;2.58;68.93;98357.66;4141597;28;20768;-89
2022/03/05 01:20:45;;;;;;;18.13;9.98;;;;;;;2.54;69.49;98367.22;4127960;28;20287;-89
2022/03/05 01:22:48;;;;;;;20.73;11.05;;;;;;;2.52;69.36;98363.81;4140346;28;20219;-91
2022/03/05 01:24:52;;;;;;;17.05;10.25;;;;;;;2.49;69.52;98361.34;4124371;28;20209;-88
2022/03/05 01:26:55;;;;;;;19.98;10.77;;;;;;;2.47;69.73;98359.75;4142377;28;20839;-88
2022/03/05 01:28:59;;;;;;;17.58;10.77;;;;;;;2.44;69.71;98359.84;4131547;28;20205;-88
2022/03/05 01:31:02;;;;;;;17.15;10.25;;;;;;;2.33;70.08;98363.63;4144485;28;20208;-89
2022/03/05 01:33:05;;;;;;;18.10;10.10;;;;;;;2.31;70.00;98361.09;4124822;28;20205;-89
2022/03/05 01:35:09;;;;;;;18.65;11.05;;;;;;;2.27;70.21;98362.13;4147315;28;20214;-88
2022/03/05 01:37:12;;;;;;;16.10;10.00;;;;;;;2.26;70.67;98364.72;4145897;28;20231;-88
2022/03/05 01:39:16;;;;;;;17.27;9.63;;;;;;;2.18;70.56;98358.97;4142196;28;20204;-89
2022/03/05 01:41:21;;;;;;;19.33;10.93;;;;;;;2.12;70.59;98356.59;4129194;28;20345;-88
2022/03/05 01:43:24;;;;;;;16.48;10.18;;;;;;;2.08;71.08;98358.41;4146891;28;20216;-88
2022/03/05 01:45:28;;;;;;;17.13;10.70;;;;;;;2.06;71.17;98357.63;4132925;28;20639;-88
2022/03/05 01:47:31;;;;;;;16.38;10.00;;;;;;;2.04;71.13;98361.97;4142095;28;20207;-89
2022/03/05 01:49:34;;;;;;;13.75;9.55;;;;;;;2.04;70.52;98356.81;4127898;28;20197;-89
2022/03/05 01:51:38;;;;;;;16.92;10.75;;;;;;;2.02;70.82;98357.78;4146669;28;20213;-88
2022/03/05 01:53:41;;;;;;;18.48;10.80;;;;;;;1.96;71.14;98355.38;4142744;28;20208;-89
2022/03/05 01:55:44;;;;;;;18.77;10.50;;;;;;;1.95;71.21;98359.66;4143911;28;20301;-88
2022/03/05 01:57:49;;;;;;;18.95;11.05;;;;;;;1.93;71.02;98358.88;4144471;28;20192;-88
2022/03/05 01:59:52;;;;;;;17.98;10.48;;;;;;;1.94;71.67;98354.59;4141509;28;20230;-88
2022/03/05 02:01:56;;;;;;;15.70;9.65;;;;;;;1.96;71.16;98361.38;4127917;28;20238;-88
2022/03/05 02:03:59;;;;;;;16.63;9.85;;;;;;;1.94;71.30;98357.19;4142334;28;20227;-88
2022/03/05 02:06:03;;;;;;;19.48;10.90;;;;;;;1.92;71.29;98357.22;4141916;28;20273;-88
2022/03/05 02:08:06;;;;;;;17.15;9.57;;;;;;;1.89;71.25;98349.59;4142248;28;20263;-89
2022/03/05 02:10:10;;;;;;;18.30;10.88;;;;;;;1.86;71.38;98351.41;4127188;28;20586;-88
2022/03/05 02:12:14;;;;;;;17.83;10.15;;;;;;;1.89;70.85;98356.44;4125901;28;20351;-88
2022/03/05 02:14:18;;;;;;;16.60;10.73;;;;;;;1.85;71.08;98352.31;4142326;28;20202;-88
2022/03/05 02:16:22;;;;;;;17.88;9.93;;;;;;;1.84;71.40;98350.63;4139846;28;20247;-88
2022/03/05 02:18:25;;;;;;;17.95;10.88;;;;;;;1.83;71.10;98358.38;4159562;28;20246;-88
2022/03/05 02:20:30;;;;;;;15.43;9.55;;;;;;;1.85;70.59;98354.03;4143655;28;20303;-88
2022/03/05 02:22:33;;;;;;;17.52;9.73;;;;;;;1.86;71.27;98353.16;4143517;28;20203;-88
2022/03/05 02:24:38;;;;;;;18.98;10.65;;;;;;;1.83;71.13;98358.38;4142961;28;20251;-88
2022/03/05 02:26:42;;;;;;;19.02;11.10;;;;;;;1.82;71.53;98357.53;4142275;28;20267;-88
2022/03/05 02:28:45;;;;;;;18.15;10.50;;;;;;;1.79;71.77;98360.19;4143461;28;20211;-88
2022/03/05 02:30:49;;;;;;;17.95;11.80;;;;;;;1.76;72.01;98362.88;4138958;28;20267;-88
2022/03/05 02:32:52;;;;;;;15.50;10.55;;;;;;;1.75;71.58;98365.47;4127041;28;20209;-88
2022/03/05 02:34:55;;;;;;;16.40;9.80;;;;;;;1.72;71.53;98365.56;4139555;28;20680;-88
2022/03/05 02:37:00;;;;;;;16.73;10.30;;;;;;;1.73;71.54;98360.38;4141085;28;20211;-88
2022/03/05 02:39:03;;;;;;;17.20;10.48;;;;;;;1.74;71.89;98363.78;4139549;28;20212;-88
2022/03/05 02:41:06;;;;;;;16.23;10.05;;;;;;;1.70;71.46;98362.19;4127424;28;20212;-87
2022/03/05 02:43:10;;;;;;;17.52;10.55;;;;;;;1.74;71.69;98369.75;4124079;28;20197;-89
2022/03/05 02:45:13;;;;;;;20.17;10.90;;;;;;;1.74;71.21;98364.63;4125626;28;20743;-88
2022/03/05 02:47:16;;;;;;;17.25;10.70;;;;;;;1.69;71.89;98369.06;4124003;28;20264;-87
2022/03/05 02:49:19;;;;;;;14.65;9.80;;;;;;;1.67;71.42;98364.84;4123863;28;20204;-88
2022/03/05 02:51:22;;;;;;;18.58;10.90;;;;;;;1.65;71.74;98364.88;4126288;28;20697;-88
2022/03/05 02:53:26;;;;;;;16.30;10.68;;;;;;;1.63;72.11;98369.22;4122097;28;20243;-88
2022/03/05 02:55:30;;;;;;;19.00;10.77;;;;;;;1.58;72.18;98368.53;4144027;28;20223;-88
2022/03/05 02:57:33;;;;;;;17.55;10.27;;;;;;;1.55;71.65;98363.47;4140659;28;20201;-88
2022/03/05 02:59:36;;;;;;;18.85;9.73;;;;;;;1.52;72.25;98363.56;4125259;28;20212;-89
2022/03/05 03:01:39;;;;;;;19.00;10.00;;;;;;;1.52;72.32;98358.44;4140185;28;20270;-88
2022/03/05 03:03:42;;;;;;;17.25;10.30;;;;;;;1.50;72.36;98361.91;4144939;28;20248;-88
2022/03/05 03:05:45;;;;;;;17.02;9.93;;;;;;;1.45;73.03;98367.19;4139665;28;20435;-88
2022/03/05 03:07:49;;;;;;;16.58;10.80;;;;;;;1.43;72.71;98363.84;4128332;28;20210;-88
2022/03/05 03:09:53;;;;;;;20.67;10.32;;;;;;;1.43;72.94;98363.84;4127284;28;20212;-88
2022/03/05 03:11:56;;;;;;;16.52;10.35;;;;;;;1.43;73.08;98363.84;4147174;28;20317;-88
2022/03/05 03:13:59;;;;;;;18.35;10.10;;;;;;;1.43;72.79;98361.25;4143151;28;20204;-88
2022/03/05 03:16:03;;;;;;;16.58;10.40;;;;;;;1.44;72.03;98360.38;4140401;28;20706;-88
2022/03/05 03:18:07;;;;;;;17.63;10.18;;;;;;;1.41;72.67;98365.63;4142387;28;20559;-91
2022/03/05 03:20:12;;;;;;;18.35;10.63;;;;;;;1.42;72.24;98364.72;4140028;28;20616;-88
2022/03/05 03:22:15;;;;;;;15.57;9.85;;;;;;;1.43;72.40;98363.00;4141201;28;20715;-89
2022/03/05 03:24:18;;;;;;;17.95;9.40;;;;;;;1.43;72.67;98366.41;4143319;28;20222;-89
2022/03/05 03:26:23;;;;;;;20.40;10.68;;;;;;;1.39;72.84;98358.81;4142284;28;20714;-89
2022/03/05 03:28:26;;;;;;;18.10;10.95;;;;;;;1.36;72.64;98352.94;4122010;28;20208;-88
2022/03/05 03:30:29;;;;;;;15.15;9.35;;;;;;;1.34;72.47;98359.81;4139519;28;20199;-88
2022/03/05 03:32:32;;;;;;;21.13;10.85;;;;;;;1.36;71.88;98360.66;4127794;28;20208;-89
2022/03/05 03:34:35;;;;;;;14.50;9.13;;;;;;;1.34;72.26;98358.13;4141977;28;20226;-89
2022/03/05 03:36:39;;;;;;;17.75;9.80;;;;;;;1.35;72.31;98358.94;4127580;28;20212;-89
2022/03/05 03:38:42;;;;;;;18.60;10.95;;;;;;;1.37;71.61;98355.47;4142550;28;20200;-89
2022/03/05 03:40:45;;;;;;;17.65;9.85;;;;;;;1.39;71.88;98364.78;4142319;28;20269;-89
2022/03/05 03:42:51;;;;;;;16.50;10.27;;;;;;;1.38;71.92;98364.00;4145293;28;20208;-88
2022/03/05 03:44:55;;;;;;;16.20;10.40;;;;;;;1.31;72.38;98360.78;4141243;28;20219;-89
2022/03/05 03:46:58;;;;;;;17.08;9.85;;;;;;;1.29;72.99;98348.84;4142650;28;21991;-88
2022/03/05 03:49:01;;;;;;;16.75;10.32;;;;;;;1.28;72.25;98352.28;4139240;28;20761;-89
2022/03/05 03:51:05;;;;;;;19.00;10.57;;;;;;;1.26;72.74;98351.50;4142119;28;20203;-88
2022/03/05 03:53:08;;;;;;;13.43;9.43;;;;;;;1.28;72.39;98357.44;4124191;28;20295;-88
2022/03/05 03:55:13;;;;;;;18.10;10.23;;;;;;;1.25;72.69;98367.78;4124486;28;20683;-88
2022/03/05 03:57:17;;;;;;;16.70;9.88;;;;;;;1.19;72.87;98357.69;4124612;28;20898;-89
2022/03/05 03:59:22;;;;;;;17.77;10.45;;;;;;;1.15;72.90;98366.38;4139718;28;20260;-88
2022/03/05 04:01:25;;;;;;;17.92;11.75;;;;;;;1.10;73.03;98363.94;4141225;28;20208;-88
2022/03/05 04:03:28;;;;;;;22.00;13.13;;;;;;;1.07;73.26;98358.88;4126948;28;20292;-89
2022/03/05 04:05:31;;;;;;;18.60;11.52;;;;;;;1.00;73.33;98361.66;4140794;28;20234;-88
2022/03/05 04:09:55;;;;;;;21.80;12.65;;;;;;;0.92;73.70;98363.59;4140788;28;20238;-88
2022/03/05 04:11:59;;;;;;;20.40;13.95;;;;;;;0.96;73.93;98360.03;4139682;28;20216;-89
2022/03/05 04:14:02;;;;;;;17.05;10.93;;;;;;;0.94;73.62;98372.06;4134338;28;20242;-89
2022/03/05 04:16:07;;;;;;;20.52;11.15;;;;;;;0.93;74.24;98372.94;4140184;28;20211;-88
2022/03/05 04:18:10;;;;;;;18.98;11.40;;;;;;;0.92;74.13;98371.28;4143073;28;20200;-88
2022/03/05 04:20:13;;;;;;;18.88;10.57;;;;;;;0.91;73.87;98368.75;4141080;28;20203;-89
2022/03/05 04:22:16;;;;;;;17.70;9.75;;;;;;;0.91;74.05;98379.03;4123081;28;20216;-89
2022/03/05 04:24:19;;;;;;;16.42;9.65;;;;;;;0.90;73.83;98370.47;4142709;28;20223;-88
2022/03/05 04:26:22;;;;;;;19.90;11.05;;;;;;;0.89;74.19;98373.94;4126901;28;20626;-88
2022/03/05 04:28:25;;;;;;;19.30;11.13;;;;;;;0.84;74.40;98372.34;4121094;28;20230;-88
2022/03/05 04:30:28;;;;;;;19.05;11.05;;;;;;;0.83;74.43;98379.22;4143758;28;20196;-88
2022/03/05 04:32:33;;;;;;;19.60;11.75;;;;;;;0.77;74.56;98371.69;4140779;28;20259;-90
2022/03/05 04:34:36;;;;;;;17.88;10.88;;;;;;;0.75;74.61;98376.00;4141090;28;20699;-88
2022/03/05 04:36:40;;;;;;;16.92;10.18;;;;;;;0.67;74.99;98387.34;4124105;28;20237;-89
2022/03/05 04:38:43;;;;;;;18.05;10.80;;;;;;;0.64;74.95;98385.69;4141652;28;20289;-89
2022/03/05 04:40:46;;;;;;;18.52;10.75;;;;;;;0.62;75.31;98384.06;4143744;28;20293;-89
2022/03/05 04:42:49;;;;;;;21.30;11.45;;;;;;;0.63;74.97;98391.72;4140373;28;20262;-88
2022/03/05 04:44:53;;;;;;;17.25;10.68;;;;;;;0.62;74.75;98384.06;4136449;28;20223;-88
2022/03/05 04:46:56;;;;;;;18.02;11.10;;;;;;;0.62;74.54;98392.59;4141875;28;20607;-89
2022/03/05 04:49:01;;;;;;;17.83;10.63;;;;;;;0.58;75.04;98388.41;4143541;28;20212;-88
2022/03/05 04:51:05;;;;;;;16.77;11.15;;;;;;;0.59;75.11;98395.22;4141033;28;21117;-89
2022/03/05 04:53:08;;;;;;;22.67;11.20;;;;;;;0.61;74.96;98392.63;4119858;28;20275;-88
2022/03/05 04:55:11;;;;;;;20.92;11.32;;;;;;;0.59;74.77;98390.09;4138690;28;20212;-88
2022/03/05 04:57:14;;;;;;;21.25;11.32;;;;;;;0.58;74.86;98393.53;4139261;28;20541;-88
2022/03/05 04:59:18;;;;;;;21.15;11.57;;;;;;;0.58;75.30;98392.69;4122173;28;20204;-88
2022/03/05 05:01:21;;;;;;;18.80;11.25;;;;;;;0.57;75.04;98386.72;4140625;28;20676;-88
2022/03/05 05:03:24;;;;;;;18.10;11.02;;;;;;;0.59;75.62;98395.22;4141749;28;20291;-88
2022/03/05 05:05:28;;;;;;;19.42;10.82;;;;;;;0.59;75.61;98400.34;4159055;28;20227;-87
2022/03/05 05:07:31;;;;;;;17.50;10.57;;;;;;;0.58;75.33;98396.09;4125437;28;20216;-88
2022/03/05 05:09:35;;;;;;;19.20;11.38;;;;;;;0.56;75.25;98395.28;4126967;28;20212;-87
2022/03/05 05:11:39;;;;;;;18.58;11.27;;;;;;;0.59;75.03;98396.97;4142838;28;20749;-88
2022/03/05 05:13:42;;;;;;;17.80;11.98;;;;;;;0.61;75.64;98392.63;4145206;28;23297;-88
2022/03/05 05:15:46;;;;;;;21.02;11.15;;;;;;;0.59;75.51;98400.34;4129232;28;20200;-89
2022/03/05 05:17:49;;;;;;;18.05;10.73;;;;;;;0.60;75.12;98402.06;4144189;28;20232;-88
2022/03/05 05:19:52;;;;;;;17.63;10.90;;;;;;;0.59;74.97;98402.91;4129835;28;20211;-88
2022/03/05 05:21:59;;;;;;;20.00;11.82;;;;;;;0.58;75.50;98403.78;4128408;28;20208;-89
2022/03/05 05:24:02;;;;;;;21.25;10.88;;;;;;;0.56;75.33;98407.28;4127630;28;20250;-88
2022/03/05 05:26:05;;;;;;;18.80;11.05;;;;;;;0.55;75.13;98405.59;4130036;28;20945;-88
2022/03/05 05:28:08;;;;;;;18.92;11.35;;;;;;;0.51;75.42;98411.66;4145405;28;20203;-89
2022/03/05 05:30:11;;;;;;;17.65;11.07;;;;;;;0.56;75.03;98414.97;4143388;28;20209;-88
2022/03/05 05:32:15;;;;;;;19.65;11.02;;;;;;;0.57;75.38;98411.50;4141617;28;21218;-88
2022/03/05 05:34:18;;;;;;;17.73;11.40;;;;;;;0.57;75.31;98417.50;4131393;28;20200;-88
2022/03/05 05:36:22;;;;;;;19.90;11.25;;;;;;;0.58;75.74;98408.91;4127244;28;20216;-88
2022/03/05 05:38:26;;;;;;;19.70;11.30;;;;;;;0.56;75.36;98413.25;4127644;28;20767;-88
2022/03/05 05:40:29;;;;;;;17.45;10.57;;;;;;;0.56;74.64;98418.38;4139181;28;20208;-88
2022/03/05 05:42:32;;;;;;;19.65;11.07;;;;;;;0.54;74.65;98419.28;4129184;28;20623;-88
2022/03/05 05:44:36;;;;;;;21.48;10.90;;;;;;;0.54;75.11;98421.84;4129203;28;20791;-88
2022/03/05 05:46:40;;;;;;;19.63;11.73;;;;;;;0.48;75.70;98428.00;4144454;28;20750;-88
2022/03/05 05:48:43;;;;;;;21.75;11.32;;;;;;;0.50;75.58;98422.81;4164217;28;20211;-88
2022/03/05 05:50:46;;;;;;;16.75;10.57;;;;;;;0.53;75.45;98423.59;4161423;28;20206;-88
2022/03/05 05:52:50;;;;;;;20.75;11.68;;;;;;;0.52;75.75;98432.16;4142961;28;20202;-88
2022/03/05 05:54:54;;;;;;;20.45;10.90;;;;;;;0.50;75.79;98431.34;4127768;28;20640;-87
2022/03/05 05:56:57;;;;;;;20.25;12.32;;;;;;;0.48;75.65;98433.13;4146123;28;20218;-87
2022/03/05 05:59:01;;;;;;;20.33;11.95;;;;;;;0.48;75.31;98439.94;4145706;28;20618;-88
2022/03/05 06:01:04;;;;;;;18.85;11.02;;;;;;;0.47;75.32;98438.28;4126680;28;20571;-88
2022/03/05 06:03:08;;;;;;;18.77;10.82;;;;;;;0.47;75.33;98435.72;4145506;28;20290;-88
2022/03/05 06:05:11;;;;;;;21.45;11.23;;;;;;;0.52;75.43;98433.88;4144304;28;20261;-88
2022/03/05 06:07:14;;;;;;;19.38;11.07;;;;;;;0.54;75.33;98439.81;4145140;28;20204;-87
2022/03/05 06:09:17;;;;;;;20.80;13.05;;;;;;;0.49;75.49;98433.94;4148947;28;20215;-88
2022/03/05 06:11:21;;;;;;;20.70;13.00;;;;;;;0.46;75.27;98445.13;4142419;28;20624;-88
2022/03/05 06:13:25;;;;;;;24.38;13.38;;;;;;;0.50;75.31;98454.44;4144487;28;20235;-87
2022/03/05 06:15:28;;;;;;;22.35;13.20;;;;;;;0.48;75.78;98443.38;4125142;28;20703;-88
2022/03/05 06:17:31;;;;;;;21.08;12.38;;;;;;;0.54;75.44;98442.38;4129157;28;20216;-87
2022/03/05 06:19:34;;;;;;;23.33;12.68;;;;;;;0.53;75.69;98446.66;4145104;28;20242;-88
2022/03/05 06:21:38;;;;;;;22.35;13.30;;;;;;;0.65;75.42;98456.66;4137443;28;20295;-88
2022/03/05 06:23:41;;;;;;;27.10;15.43;;;;;;;0.80;75.21;98450.28;4126029;28;20295;-88
2022/03/05 06:25:44;;;;;;;25.45;14.73;;;;;;;0.95;75.50;98463.59;4143438;28;20220;-84
2022/03/05 06:27:49;;;;;;;25.77;14.32;;;;;;;1.13;74.93;98463.97;4125574;28;20216;-84
2022/03/05 06:29:52;;;;;;;21.45;12.50;;;;;;;1.29;74.90;98456.72;4142733;28;20204;-85
2022/03/05 06:31:58;;;;;;;21.10;12.85;;;;;;;1.42;74.40;98456.34;4139413;28;20231;-84
2022/03/05 06:34:01;;;;;;;23.27;13.25;;;;;;;1.54;73.83;98463.72;4142965;28;20216;-84
2022/03/05 06:36:05;;;;;;;20.10;11.55;;;;;;;1.70;73.47;98463.25;4128706;28;20205;-84
2022/03/05 06:38:08;;;;;;;24.02;13.52;;;;;;;1.88;72.21;98470.47;4141253;28;20208;-83
2022/03/05 06:40:12;;;;;;;25.40;13.88;;;;;;;2.04;71.97;98469.97;4125276;28;20204;-83
2022/03/05 06:42:15;;;;;;;22.80;12.88;;;;;;;2.24;71.47;98472.81;4145170;28;20234;-83
2022/03/05 06:44:20;;;;;;;20.08;11.43;;;;;;;2.44;71.48;98468.75;4124561;28;20267;-83
2022/03/05 06:46:23;;;;;;;23.00;12.45;;;;;;;2.70;70.43;98475.66;4123562;28;20735;-83
2022/03/05 06:48:26;;;;;;;19.92;11.93;;;;;;;2.90;70.16;98480.13;4139675;28;20232;-83
2022/03/05 06:50:29;;;;;;;25.48;13.57;;;;;;;3.11;69.48;98487.16;4140107;28;20204;-83
2022/03/05 06:52:32;;;;;;;24.15;12.57;;;;;;;3.30;68.46;98493.38;4140574;28;20261;-83
2022/03/05 06:54:35;;;;;;;21.75;12.68;;;;;;;3.52;68.33;98482.28;4123270;28;20249;-83
2022/03/05 06:56:38;;;;;;;22.60;13.15;;;;;;;3.72;67.15;98486.75;4144556;28;20232;-84
2022/03/05 06:58:41;;;;;;;20.42;12.48;;;;;;;3.90;66.46;98489.53;4143456;28;20208;-83
2022/03/05 07:00:46;;;;;;;20.92;11.57;;;;;;;4.00;66.04;98483.97;4140406;28;20266;-83
2022/03/05 07:02:49;;;;;;;17.02;11.70;;;;;;;4.19;66.69;98486.72;4145061;28;20729;-83
2022/03/05 07:04:53;;;;;;;19.17;11.50;;;;;;;4.39;65.54;98485.06;4142754;28;20244;-83
2022/03/05 07:06:56;;;;;;;21.95;12.10;;;;;;;4.49;65.03;98492.41;4141954;28;20224;-83
2022/03/05 07:08:59;;;;;;;19.65;12.10;;;;;;;4.65;64.82;98492.69;4129737;28;20270;-83
2022/03/05 07:11:02;;;;;;;19.52;11.95;;;;;;;4.82;64.39;98498.84;4140185;28;20221;-83
2022/03/05 07:13:05;;;;;;;21.48;13.27;;;;;;;5.00;64.04;98496.38;4143142;28;20219;-83
2022/03/05 07:15:09;;;;;;;19.70;12.13;;;;;;;5.12;65.20;98492.47;4143080;28;20772;-83
2022/03/05 07:17:13;;;;;;;20.05;12.07;;;;;;;5.30;64.54;98501.16;4141374;28;20728;-84
2022/03/05 07:19:16;;;;;;;20.17;13.07;;;;;;;5.42;64.02;98498.06;4142978;28;20242;-84
2022/03/05 07:21:20;;;;;;;24.45;14.00;;;;;;;5.54;63.84;98488.97;4138195;28;20211;-83
2022/03/05 07:23:23;;;;;;;20.25;13.77;;;;;;;5.60;63.00;98495.53;4139913;28;20294;-85
2022/03/05 07:25:26;;;;;;;21.13;12.40;;;;;;;5.67;63.24;98485.78;4127672;28;20201;-85
2022/03/05 07:27:29;;;;;;;24.50;15.52;;;;;;;5.70;62.42;98485.66;4141118;28;20761;-85
2022/03/05 07:29:32;;;;;;;20.08;14.48;;;;;;;5.72;62.03;98487.25;4128763;28;20251;-84
2022/03/05 07:31:35;;;;;;;22.08;14.00;;;;;;;5.85;61.32;98487.59;4141414;28;20254;-84
2022/03/05 07:33:40;;;;;;;19.30;14.00;;;;;;;5.84;60.85;98483.34;4141633;28;20266;-86
2022/03/05 07:35:43;;;;;;;20.85;14.20;;;;;;;5.95;61.53;98488.88;4142608;28;20639;-85
2022/03/05 07:37:46;;;;;;;22.40;14.45;;;;;;;6.06;61.38;98494.41;4140867;28;20208;-84
2022/03/05 07:39:53;;;;;;;17.35;12.15;;;;;;;6.19;60.37;98492.09;4140542;28;20251;-84
2022/03/05 07:41:56;;;;;;;22.50;12.65;;;;;;;6.24;61.04;98495.28;4142741;28;20200;-85
2022/03/05 07:43:59;;;;;;;27.35;17.52;;;;;;;6.27;60.53;98484.81;4142445;28;20214;-84
2022/03/05 07:46:03;;;;;;;19.05;13.10;;;;;;;6.39;61.18;98493.75;4139681;28;20257;-85
2022/03/05 07:48:06;;;;;;;18.67;12.73;;;;;;;6.61;61.08;98484.94;4124432;28;20235;-84
2022/03/05 07:50:11;;;;;;;18.52;12.13;;;;;;;6.77;59.59;98496.28;4145904;28;20200;-85
2022/03/05 07:52:14;;;;;;;20.77;12.80;;;;;;;6.71;60.11;98491.38;4142127;28;20201;-85
2022/03/05 07:54:17;;;;;;;20.35;13.57;;;;;;;6.81;59.49;98493.47;4139962;28;20254;-86
2022/03/05 07:56:20;;;;;;;20.67;12.70;;;;;;;6.77;59.59;98493.69;4138508;28;20608;-85
2022/03/05 07:58:23;;;;;;;20.27;12.38;;;;;;;6.82;59.65;98502.06;4125885;28;20232;-85
2022/03/05 08:00:26;;;;;;;17.73;13.05;;;;;;;6.84;59.57;98503.69;4142595;28;20318;-86
2022/03/05 08:02:30;;;;;;;19.33;12.15;;;;;;;6.85;59.68;98505.34;4142297;28;20211;-85
2022/03/05 08:04:33;;;;;;;18.80;12.13;;;;;;;6.95;59.54;98505.78;4143911;28;20208;-84
2022/03/05 08:06:57;;;;;;;21.20;13.20;;;;;;;7.08;60.35;98493.00;4144058;28;20290;-86
2022/03/05 08:09:00;;;;;;;19.60;12.95;;;;;;;7.24;59.53;98504.28;4126178;28;20272;-84
2022/03/05 08:11:04;;;;;;;20.88;13.38;;;;;;;7.28;59.08;98507.59;4141938;28;20578;-85
2022/03/05 08:13:07;;;;;;;19.65;12.77;;;;;;;7.49;60.26;98502.19;4143056;28;20706;-86
2022/03/05 08:15:11;;;;;;;20.60;13.82;;;;;;;7.51;57.99;98502.94;4120827;28;20212;-84
2022/03/05 08:17:14;;;;;;;19.30;13.52;;;;;;;7.48;58.07;98509.09;4139802;28;20200;-85
2022/03/05 08:19:17;;;;;;;19.83;13.07;;;;;;;7.27;58.48;98517.09;4123762;28;20217;-83
2022/03/05 08:21:21;;;;;;;20.40;13.18;;;;;;;7.06;58.64;98512.13;4139564;28;20218;-84
2022/03/05 08:23:25;;;;;;;21.83;13.13;;;;;;;7.07;59.83;98513.81;4121071;28;20259;-84
2022/03/05 08:25:30;;;;;;;18.73;13.05;;;;;;;7.16;59.21;98511.59;4139875;28;20627;-83
2022/03/05 08:27:33;;;;;;;20.70;12.90;;;;;;;7.06;59.02;98505.16;4141294;28;20311;-85
2022/03/05 08:29:36;;;;;;;20.55;12.52;;;;;;;6.94;59.05;98504.91;4125408;28;20622;-84
2022/03/05 08:31:40;;;;;;;21.30;12.77;;;;;;;6.90;59.46;98508.59;4137227;28;20718;-84
2022/03/05 08:33:43;;;;;;;20.23;13.40;;;;;;;6.96;59.59;98510.03;4139839;28;20222;-83
2022/03/05 08:35:46;;;;;;;21.65;13.10;;;;;;;6.97;59.36;98503.94;4141162;28;20208;-84
2022/03/05 08:37:50;;;;;;;20.40;13.85;;;;;;;7.05;60.35;98503.50;4128956;28;20204;-84
2022/03/05 08:39:54;;;;;;;20.95;13.07;;;;;;;7.10;58.82;98504.13;4130575;28;20298;-84
2022/03/05 08:41:57;;;;;;;21.98;12.75;;;;;;;7.08;58.82;98503.34;4138795;28;20201;-83
2022/03/05 08:44:00;;;;;;;19.30;13.95;;;;;;;7.13;59.43;98509.16;4137867;28;20216;-84
2022/03/05 08:46:05;;;;;;;21.27;12.88;;;;;;;7.14;59.17;98497.00;4140384;28;20227;-83
2022/03/05 08:48:09;;;;;;;22.50;13.70;;;;;;;7.15;58.21;98493.53;4139651;28;21651;-83
2022/03/05 08:50:13;;;;;;;19.75;13.75;;;;;;;7.19;58.50;98500.25;4139167;28;20203;-83
2022/03/05 08:52:16;;;;;;;20.02;12.82;;;;;;;7.27;58.45;98498.13;4143947;28;20563;-83
2022/03/05 08:54:20;;;;;;;20.80;12.85;;;;;;;7.43;59.00;98492.09;4141381;28;20243;-83
2022/03/05 08:56:25;;;;;;;21.02;13.48;;;;;;;7.63;58.59;98489.34;4141763;28;20204;-84
2022/03/05 08:58:28;;;;;;;23.85;14.23;;;;;;;7.74;58.49;98500.88;4137898;28;20671;-84
2022/03/05 09:00:31;;;;;;;19.80;13.02;;;;;;;7.87;57.07;98491.53;4145006;28;20277;-84
2022/03/05 09:02:34;;;;;;;22.33;14.35;;;;;;;7.98;57.99;98499.59;4144769;28;20667;-86
2022/03/05 09:04:38;;;;;;;20.98;12.48;;;;;;;7.96;57.42;98494.50;4145253;28;20222;-86
2022/03/05 09:06:41;;;;;;;17.95;12.70;;;;;;;7.99;57.18;98489.13;4138844;28;20738;-86
2022/03/05 09:08:44;;;;;;;17.70;12.32;;;;;;;8.02;58.03;98486.38;4144343;28;20223;-87
2022/03/05 09:10:48;;;;;;;20.17;12.98;;;;;;;8.08;56.32;98491.25;4136543;28;20208;-85
2022/03/05 09:12:52;;;;;;;19.33;12.77;;;;;;;8.13;56.11;98485.84;4137512;28;20204;-82
2022/03/05 09:14:56;;;;;;;18.20;11.85;;;;;;;8.33;58.23;98490.84;4142404;28;20869;-86
2022/03/05 09:16:59;;;;;;;18.33;12.00;;;;;;;8.52;57.18;98492.38;4142104;28;20211;-86
2022/03/05 09:19:03;;;;;;;17.80;11.77;;;;;;;8.58;56.91;98486.84;4122934;28;20276;-86
2022/03/05 09:21:06;;;;;;;17.02;11.50;;;;;;;8.55;54.69;98481.81;4139695;28;20594;-86
2022/03/05 09:23:09;;;;;;;18.90;12.18;;;;;;;8.60;55.62;98490.19;4139850;28;20203;-86
2022/03/05 09:25:12;;;;;;;18.20;10.38;;;;;;;8.41;52.75;98476.53;4124775;28;20252;-87
2022/03/05 09:27:15;;;;;;;14.37;9.00;;;;;;;8.31;53.01;98474.50;4122862;28;20648;-86
2022/03/05 09:29:20;;;;;;;16.75;11.15;;;;;;;8.24;54.50;98480.94;4141492;28;20218;-89
2022/03/05 09:31:23;;;;;;;14.05;9.65;;;;;;;8.29;54.17;98477.19;4141803;28;20255;-87
2022/03/05 09:33:27;;;;;;;13.55;9.38;;;;;;;8.10;52.83;98481.66;4141687;28;20224;-82
2022/03/05 09:35:31;;;;;;;14.50;9.02;;;;;;;8.16;53.59;98473.56;4127351;28;20222;-83
2022/03/05 09:37:35;;;;;;;14.00;9.77;;;;;;;8.31;53.55;98485.72;4139019;28;20204;-82